Time;durP1;ratioP1;P1;durP2;ratioP2;P2;SDS_P1;SDS_P2;PMS_P1;PMS_P2;Temp;Humidity;BMP_temperature;BMP_pressure;BME280_temperature;BME280_humidity;BME280_pressure;Samples;Min_cycle;Max_cycle;Signal;HPM_P1;HPM_P2
2021/09/05 00:00:09;;;;;;;8.50;2.00;;;;;;;11.28;73.49;100815.20;111758;1202;22440;-60
2021/09/05 00:02:57;;;;;;;10.10;2.30;;;;;;;11.25;73.65;100816.08;112011;1205;22448;-59
2021/09/05 00:05:25;;;;;;;9.80;2.30;;;;;;;11.21;73.69;100813.95;111871;1203;22431;-58
2021/09/05 00:07:53;;;;;;;10.10;2.20;;;;;;;11.18;73.59;100815.60;111793;1202;22529;-60
2021/09/05 00:10:22;;;;;;;9.20;2.00;;;;;;;11.15;73.67;100815.07;111694;1202;22425;-59
2021/09/05 00:12:50;;;;;;;10.00;1.80;;;;;;;11.12;73.66;100814.54;111932;1202;26326;-61
2021/09/05 00:15:18;;;;;;;11.80;2.50;;;;;;;11.07;73.54;100819.67;111804;1202;22452;-60
2021/09/05 00:17:48;;;;;;;8.70;2.10;;;;;;;11.06;73.86;100823.32;111730;1201;22486;-60
2021/09/05 00:20:17;;;;;;;9.00;1.90;;;;;;;11.06;73.85;100822.14;111666;1201;24834;-58
2021/09/05 00:22:47;;;;;;;10.60;2.00;;;;;;;11.03;73.86;100825.59;111751;1201;25148;-59
2021/09/05 00:25:16;;;;;;;11.30;2.00;;;;;;;11.00;73.78;100831.80;111812;1201;26277;-59
2021/09/05 00:27:44;;;;;;;11.70;2.00;;;;;;;10.98;73.92;100835.69;111900;1202;22569;-59
2021/09/05 00:30:13;;;;;;;9.60;2.20;;;;;;;10.95;73.89;100832.27;111723;1201;22513;-60
2021/09/05 00:32:41;;;;;;;7.60;2.10;;;;;;;10.93;73.97;100837.55;111732;1201;22452;-61
2021/09/05 00:35:11;;;;;;;11.80;2.00;;;;;;;10.91;73.80;100841.59;111879;1202;22492;-59
2021/09/05 00:37:40;;;;;;;10.70;2.20;;;;;;;10.88;73.89;100846.03;112104;1205;25059;-60
2021/09/05 00:40:11;;;;;;;9.90;1.90;;;;;;;10.86;74.01;100850.23;112157;1203;25191;-59
2021/09/05 00:42:41;;;;;;;10.80;1.80;;;;;;;10.84;74.00;100854.65;112063;1202;24188;-59
2021/09/05 00:45:12;;;;;;;9.00;2.00;;;;;;;10.81;74.17;100851.19;111929;1202;23102;-60
2021/09/05 00:47:40;;;;;;;8.20;1.80;;;;;;;10.79;74.14;100852.80;111827;1202;25153;-59
2021/09/05 00:50:10;;;;;;;9.10;1.90;;;;;;;10.76;74.10;100849.10;111748;1202;22434;-59
2021/09/05 00:52:39;;;;;;;9.50;1.80;;;;;;;10.71;74.14;100850.36;111803;1201;22487;-59
2021/09/05 00:55:09;;;;;;;11.10;1.80;;;;;;;10.68;74.24;100852.80;111805;1202;25159;-59
2021/09/05 00:57:44;;;;;;;10.40;1.90;;;;;;;10.65;74.31;100854.63;111734;1203;24126;-59
2021/09/05 01:00:18;;;;;;;8.40;1.60;;;;;;;10.61;74.37;100857.52;111677;1201;22455;-59
2021/09/05 01:02:47;;;;;;;8.70;1.80;;;;;;;10.55;74.29;100855.59;111770;1202;24689;-59
2021/09/05 01:05:16;;;;;;;9.10;1.90;;;;;;;10.51;74.41;100857.59;111925;1202;24116;-59
2021/09/05 01:07:45;;;;;;;10.20;2.00;;;;;;;10.48;74.22;100858.43;111765;1202;24091;-59
2021/09/05 01:10:15;;;;;;;9.80;1.60;;;;;;;10.44;74.33;100858.62;111819;1201;24111;-58
2021/09/05 01:12:43;;;;;;;12.50;2.40;;;;;;;10.40;74.33;100861.84;111902;1203;22473;-59
2021/09/05 01:15:12;;;;;;;8.80;1.80;;;;;;;10.35;74.25;100859.26;112045;1202;22529;-60
2021/09/05 01:17:40;;;;;;;10.00;1.70;;;;;;;10.31;74.33;100860.45;111741;1201;24232;-59
2021/09/05 01:20:11;;;;;;;8.80;2.00;;;;;;;10.28;74.40;100865.67;111659;1202;24080;-59
2021/09/05 01:22:39;;;;;;;10.30;2.00;;;;;;;10.25;74.44;100866.61;111829;1201;22545;-59
2021/09/05 01:25:09;;;;;;;10.30;1.70;;;;;;;10.23;74.49;100872.84;111726;1201;22552;-58
2021/09/05 01:27:37;;;;;;;6.80;1.50;;;;;;;10.18;74.52;100871.83;111782;1202;25188;-59
2021/09/05 01:30:08;;;;;;;10.20;2.20;;;;;;;10.14;74.44;100873.77;111884;1203;23095;-59
2021/09/05 01:32:36;;;;;;;8.70;1.80;;;;;;;10.11;74.52;100875.28;111713;1202;24131;-59
2021/09/05 01:35:06;;;;;;;9.10;1.70;;;;;;;10.09;74.51;100876.48;111720;1206;22975;-58
2021/09/05 01:37:34;;;;;;;8.10;1.60;;;;;;;10.05;74.64;100877.75;111911;1203;22566;-58
2021/09/05 01:40:05;;;;;;;10.50;2.10;;;;;;;10.01;74.56;100876.31;111773;1201;26264;-60
2021/09/05 01:42:34;;;;;;;6.50;1.60;;;;;;;10.00;74.60;100875.42;111909;1201;22556;-61
2021/09/05 01:45:02;;;;;;;7.90;1.80;;;;;;;9.97;74.71;100875.63;111850;1203;22448;-59
2021/09/05 01:47:31;;;;;;;9.00;1.80;;;;;;;9.94;74.75;100873.84;111799;1201;22438;-58
2021/09/05 01:49:59;;;;;;;7.80;1.50;;;;;;;9.92;74.72;100884.03;111781;1201;22726;-59
2021/09/05 01:52:27;;;;;;;11.90;1.70;;;;;;;9.91;74.86;100885.50;111786;1201;24138;-59
2021/09/05 01:54:55;;;;;;;8.10;1.60;;;;;;;9.90;74.99;100885.85;111743;1203;22619;-59
2021/09/05 01:57:25;;;;;;;8.40;1.60;;;;;;;9.90;75.07;100884.10;111689;1201;24872;-60
2021/09/05 01:59:54;;;;;;;8.20;1.70;;;;;;;9.90;75.00;100886.40;111818;1202;22562;-59
2021/09/05 02:02:21;;;;;;;7.20;1.70;;;;;;;9.90;75.23;100884.98;111766;1201;23758;-58
2021/09/05 02:04:51;;;;;;;8.20;1.90;;;;;;;9.91;75.37;100887.89;111736;1201;22433;-59
2021/09/05 02:07:20;;;;;;;5.50;1.10;;;;;;;9.94;75.52;100887.70;111738;1201;24138;-59
2021/09/05 02:09:48;;;;;;;10.50;1.50;;;;;;;9.95;75.49;100891.97;111726;1203;22479;-60
2021/09/05 02:12:16;;;;;;;7.20;1.50;;;;;;;9.97;75.57;100894.92;111733;1201;22526;-59
2021/09/05 02:14:45;;;;;;;8.10;1.40;;;;;;;9.98;75.59;100895.88;111719;1201;22898;-59
2021/09/05 02:17:13;;;;;;;8.00;1.50;;;;;;;10.00;75.60;100897.66;111749;1201;26338;-58
2021/09/05 02:19:41;;;;;;;11.60;1.50;;;;;;;10.01;75.60;100899.92;111933;1201;22444;-58
2021/09/05 02:22:12;;;;;;;7.00;1.40;;;;;;;10.01;75.62;100899.52;112092;1201;22457;-56
2021/09/05 02:24:43;;;;;;;6.00;1.30;;;;;;;9.99;75.74;100900.73;112047;1203;24217;-59
2021/09/05 02:27:11;;;;;;;7.80;1.40;;;;;;;9.97;75.75;100901.99;112108;1202;22584;-58
2021/09/05 02:29:40;;;;;;;8.60;1.60;;;;;;;9.95;75.72;100901.52;112070;1202;25043;-59
2021/09/05 02:32:08;;;;;;;8.40;1.80;;;;;;;9.93;75.79;100899.83;111761;1201;25148;-59
2021/09/05 02:34:37;;;;;;;8.00;1.60;;;;;;;9.91;75.80;100901.21;111870;1204;24264;-59
2021/09/05 02:37:09;;;;;;;8.50;1.70;;;;;;;9.87;75.63;100899.36;111758;1203;25151;-59
2021/09/05 02:39:37;;;;;;;8.70;1.40;;;;;;;9.84;75.88;100902.21;111926;1201;24230;-59
2021/09/05 02:42:06;;;;;;;7.20;1.50;;;;;;;9.82;75.77;100902.45;111710;1201;25085;-58
2021/09/05 02:44:37;;;;;;;9.30;1.80;;;;;;;9.79;75.83;100901.82;111786;1201;23955;-60
2021/09/05 02:47:05;;;;;;;7.90;1.60;;;;;;;9.76;75.88;100900.51;111770;1201;25225;-59
2021/09/05 02:49:34;;;;;;;6.50;1.60;;;;;;;9.74;75.95;100905.76;111739;1201;22431;-59
2021/09/05 02:52:02;;;;;;;8.50;1.50;;;;;;;9.72;75.98;100907.27;111637;1201;22468;-59
2021/09/05 02:54:30;;;;;;;6.20;1.10;;;;;;;9.71;75.94;100905.86;111693;1203;22444;-59
2021/09/05 02:56:58;;;;;;;9.00;1.40;;;;;;;9.71;75.98;100910.35;111664;1201;25211;-59
2021/09/05 02:59:26;;;;;;;6.90;1.40;;;;;;;9.71;76.25;100908.41;111665;1201;22451;-58
2021/09/05 03:01:54;;;;;;;7.70;1.30;;;;;;;9.72;76.17;100911.98;111702;1201;22467;-58
2021/09/05 03:04:23;;;;;;;9.10;1.60;;;;;;;9.72;76.18;100911.80;111730;1201;24116;-59
2021/09/05 03:06:51;;;;;;;9.80;1.70;;;;;;;9.74;76.24;100915.39;111953;1202;27574;-58
2021/09/05 03:09:19;;;;;;;8.60;1.50;;;;;;;9.75;76.44;100918.80;111731;1203;22456;-59
2021/09/05 03:11:47;;;;;;;9.90;1.70;;;;;;;9.75;76.48;100922.27;111680;1203;24110;-59
2021/09/05 03:14:16;;;;;;;9.60;1.80;;;;;;;9.76;76.51;100923.69;111720;1201;23113;-59
2021/09/05 03:16:45;;;;;;;11.50;1.70;;;;;;;9.77;76.43;100923.59;111880;1201;25529;-59
2021/09/05 03:19:13;;;;;;;7.50;1.30;;;;;;;9.77;76.51;100921.33;111683;1201;22555;-59
2021/09/05 03:21:41;;;;;;;8.00;1.20;;;;;;;9.77;76.61;100921.95;111826;1201;25084;-60
2021/09/05 03:24:10;;;;;;;10.10;1.80;;;;;;;9.78;76.43;100920.67;111707;1201;24079;-60
2021/09/05 03:26:38;;;;;;;8.00;1.40;;;;;;;9.76;76.53;100917.55;111827;1201;22530;-60
2021/09/05 03:29:08;;;;;;;9.60;1.40;;;;;;;9.75;76.63;100922.20;111664;1201;22453;-59
2021/09/05 03:31:37;;;;;;;7.30;1.50;;;;;;;9.72;76.50;100917.77;111784;1201;22420;-58
2021/09/05 03:34:06;;;;;;;9.90;1.70;;;;;;;9.69;76.64;100917.01;111799;1201;23707;-59
2021/09/05 03:36:34;;;;;;;7.20;1.40;;;;;;;9.66;76.61;100918.88;111886;1201;24141;-58
2021/09/05 03:39:02;;;;;;;9.80;1.70;;;;;;;9.62;76.54;100918.73;111662;1201;22552;-59
2021/09/05 03:41:30;;;;;;;10.90;1.80;;;;;;;9.58;76.60;100918.57;111654;1202;26379;-58
2021/09/05 03:43:59;;;;;;;8.50;1.60;;;;;;;9.54;76.58;100920.15;111804;1203;25079;-61
2021/09/05 03:46:27;;;;;;;9.60;1.80;;;;;;;9.50;76.58;100920.45;111933;1201;24124;-58
2021/09/05 03:48:55;;;;;;;6.50;1.20;;;;;;;9.47;76.55;100922.11;111708;1201;24297;-58
2021/09/05 03:51:25;;;;;;;9.30;1.50;;;;;;;9.43;76.59;100926.55;111683;1201;22432;-59
2021/09/05 03:53:54;;;;;;;8.00;1.40;;;;;;;9.42;76.56;100929.05;111725;1201;22464;-58
2021/09/05 03:56:22;;;;;;;7.70;1.70;;;;;;;9.41;76.53;100933.14;111686;1201;22543;-58
2021/09/05 03:58:51;;;;;;;7.50;1.80;;;;;;;9.39;76.68;100933.05;111704;1201;25168;-59
2021/09/05 04:01:19;;;;;;;7.70;1.20;;;;;;;9.38;76.68;100934.94;111792;1203;25111;-57
2021/09/05 04:03:50;;;;;;;11.20;1.70;;;;;;;9.38;76.86;100937.78;111614;1203;25141;-61
2021/09/05 04:06:19;;;;;;;9.40;1.40;;;;;;;9.38;76.90;100936.52;111707;1201;22466;-58
2021/09/05 04:08:49;;;;;;;5.20;1.30;;;;;;;9.40;77.07;100942.02;111867;1201;22438;-60
2021/09/05 04:11:17;;;;;;;10.70;1.70;;;;;;;9.41;77.19;100947.89;111696;1201;22448;-59
2021/09/05 04:13:46;;;;;;;11.90;1.90;;;;;;;9.42;77.20;100942.75;111799;1203;22437;-58
2021/09/05 04:16:18;;;;;;;7.80;1.60;;;;;;;9.44;77.29;100948.11;111888;1200;26563;-58
2021/09/05 04:18:47;;;;;;;10.60;1.80;;;;;;;9.44;77.33;100955.63;111760;1201;26564;-60
2021/09/05 04:21:15;;;;;;;8.00;1.50;;;;;;;9.44;77.30;100952.63;111877;1201;24213;-59
2021/09/05 04:23:43;;;;;;;8.70;1.70;;;;;;;9.43;77.39;100956.11;111694;1201;25104;-58
2021/09/05 04:26:12;;;;;;;7.30;1.60;;;;;;;9.43;77.54;100960.55;111622;1201;22448;-59
2021/09/05 04:28:40;;;;;;;6.00;1.40;;;;;;;9.44;77.61;100960.50;111704;1201;24232;-59
2021/09/05 04:31:08;;;;;;;8.60;1.90;;;;;;;9.45;77.54;100960.77;111689;1201;25343;-59
2021/09/05 04:33:36;;;;;;;10.70;1.60;;;;;;;9.46;77.69;100964.81;111676;1201;22453;-59
2021/09/05 04:36:05;;;;;;;9.00;2.20;;;;;;;9.48;77.80;100970.16;111729;1201;24320;-59
2021/09/05 04:38:33;;;;;;;8.00;1.40;;;;;;;9.48;77.75;100969.11;111801;1201;22457;-60
2021/09/05 04:41:01;;;;;;;11.20;1.50;;;;;;;9.50;77.75;100972.45;111664;1201;22459;-57
2021/09/05 04:43:32;;;;;;;9.60;1.90;;;;;;;9.52;77.88;100970.98;111689;1202;22453;-59
2021/09/05 04:46:00;;;;;;;7.00;1.50;;;;;;;9.53;77.98;100977.52;111697;1201;25085;-58
2021/09/05 04:48:28;;;;;;;9.80;1.60;;;;;;;9.53;77.98;100978.40;111964;1201;22510;-58
2021/09/05 04:50:59;;;;;;;9.40;1.70;;;;;;;9.55;78.17;100982.80;111961;1203;22918;-59
2021/09/05 04:53:27;;;;;;;11.90;1.70;;;;;;;9.57;78.16;100983.38;111706;1201;25087;-59
2021/09/05 04:55:57;;;;;;;14.40;2.30;;;;;;;9.59;78.26;100983.93;111821;1201;25095;-58
2021/09/05 04:58:25;;;;;;;10.80;2.00;;;;;;;9.61;78.27;100988.30;111985;1201;22441;-58
2021/09/05 05:00:56;;;;;;;8.10;1.70;;;;;;;9.64;78.25;100991.55;111663;1201;22483;-58
2021/09/05 05:03:24;;;;;;;11.00;2.10;;;;;;;9.67;78.27;100994.69;111715;1201;25084;-59
2021/09/05 05:05:52;;;;;;;10.80;1.90;;;;;;;9.70;78.37;100999.42;111827;1201;22547;-59
2021/09/05 05:08:21;;;;;;;7.10;1.50;;;;;;;9.75;78.50;101001.80;111709;1201;25211;-58
2021/09/05 05:10:49;;;;;;;9.30;2.10;;;;;;;9.80;78.62;101004.41;111734;1201;24749;-59
2021/09/05 05:13:18;;;;;;;10.10;1.90;;;;;;;9.87;78.67;101006.69;111756;1201;22430;-59
2021/09/05 05:15:47;;;;;;;8.60;1.90;;;;;;;9.93;78.61;101008.45;111791;1201;22438;-59
2021/09/05 05:18:15;;;;;;;8.70;1.70;;;;;;;9.98;78.60;101013.85;111638;1201;24732;-61
2021/09/05 05:20:43;;;;;;;6.00;1.50;;;;;;;10.02;78.48;101015.11;111898;1201;25041;-58
2021/09/05 05:23:12;;;;;;;7.80;1.50;;;;;;;10.07;78.51;101021.45;111695;1201;22489;-60
2021/09/05 05:25:40;;;;;;;10.50;1.90;;;;;;;10.11;78.54;101022.11;111780;1201;22545;-58
2021/09/05 05:28:08;;;;;;;9.30;1.70;;;;;;;10.17;78.72;101021.83;111685;1201;24049;-58
2021/09/05 05:30:36;;;;;;;10.50;1.70;;;;;;;10.25;78.77;101028.21;111727;1201;25270;-58
2021/09/05 05:33:04;;;;;;;8.00;1.60;;;;;;;10.31;78.60;101028.38;111737;1201;22467;-59
2021/09/05 05:35:33;;;;;;;8.20;1.70;;;;;;;10.36;78.69;101030.88;112241;1201;22445;-58
2021/09/05 05:38:01;;;;;;;7.40;1.30;;;;;;;10.42;78.70;101033.26;112399;1201;24128;-58
2021/09/05 05:40:33;;;;;;;7.70;1.40;;;;;;;10.49;78.67;101036.42;111696;1201;22511;-59
2021/09/05 05:43:02;;;;;;;6.50;1.30;;;;;;;10.57;78.57;101038.02;111855;1201;25163;-58
2021/09/05 05:45:30;;;;;;;10.70;1.70;;;;;;;10.64;78.50;101040.48;111770;1201;24393;-59
2021/09/05 05:47:59;;;;;;;10.60;1.80;;;;;;;10.70;78.40;101040.30;111614;1194;22466;-58
2021/09/05 05:50:27;;;;;;;9.00;1.70;;;;;;;10.76;78.30;101042.47;111766;1201;22457;-59
2021/09/05 05:52:55;;;;;;;13.00;1.70;;;;;;;10.83;78.36;101044.40;111935;1201;22449;-59
2021/09/05 05:55:24;;;;;;;6.70;1.30;;;;;;;10.88;78.22;101045.48;111656;1201;22454;-58
2021/09/05 05:57:52;;;;;;;8.50;1.40;;;;;;;10.93;77.98;101046.67;111706;1201;24207;-59
2021/09/05 06:00:25;;;;;;;8.90;1.60;;;;;;;10.99;78.12;101051.92;112291;1195;25139;-63
2021/09/05 06:02:53;;;;;;;12.40;2.20;;;;;;;11.06;78.03;101053.50;112009;1201;24393;-64
2021/09/05 06:05:22;;;;;;;8.00;1.70;;;;;;;11.14;77.98;101053.09;111795;1201;22453;-64
2021/09/05 06:07:51;;;;;;;8.10;1.70;;;;;;;11.21;77.81;101057.09;112109;1201;22454;-63
2021/09/05 06:10:20;;;;;;;6.20;1.50;;;;;;;11.26;77.79;101059.28;111916;1201;25238;-62
2021/09/05 06:12:48;;;;;;;9.60;1.80;;;;;;;11.32;77.90;101065.23;111783;1201;22449;-63
2021/09/05 06:15:17;;;;;;;10.90;1.70;;;;;;;11.38;77.81;101068.02;111936;1201;24276;-63
2021/09/05 06:17:45;;;;;;;9.10;1.60;;;;;;;11.44;77.68;101070.38;111788;1201;24010;-62
2021/09/05 06:20:14;;;;;;;8.70;1.30;;;;;;;11.50;77.71;101073.56;111909;1202;22452;-63
2021/09/05 06:22:43;;;;;;;10.30;1.80;;;;;;;11.56;77.46;101079.60;111944;1203;22449;-63
2021/09/05 06:25:12;;;;;;;6.60;1.20;;;;;;;11.61;77.41;101076.23;111982;1203;26502;-63
2021/09/05 06:27:40;;;;;;;13.10;1.60;;;;;;;11.66;77.28;101080.27;112123;1202;22454;-63
2021/09/05 06:30:12;;;;;;;7.30;1.50;;;;;;;11.71;77.14;101078.83;111940;1202;22591;-62
2021/09/05 06:32:44;;;;;;;10.90;1.80;;;;;;;11.76;76.92;101084.64;112187;1201;25300;-63
2021/09/05 06:35:12;;;;;;;6.40;1.40;;;;;;;11.81;76.94;101082.03;111950;1201;25448;-63
2021/09/05 06:37:41;;;;;;;7.30;1.20;;;;;;;11.86;76.79;101085.48;112029;1201;24022;-64
2021/09/05 06:40:11;;;;;;;9.00;1.60;;;;;;;11.91;76.72;101089.83;111978;1203;23187;-62
2021/09/05 06:42:39;;;;;;;9.40;1.60;;;;;;;11.96;76.68;101089.60;111913;1201;22425;-62
2021/09/05 06:45:10;;;;;;;12.10;1.80;;;;;;;12.02;76.68;101090.31;111844;1201;24291;-63
2021/09/05 06:47:39;;;;;;;10.50;2.40;;;;;;;12.07;76.55;101093.10;111933;1201;25109;-63
2021/09/05 06:50:11;;;;;;;13.00;2.80;;;;;;;12.12;76.27;101092.39;112173;1202;22703;-63
2021/09/05 06:52:40;;;;;;;7.90;1.50;;;;;;;12.17;76.08;101094.45;112140;1203;22438;-63
2021/09/05 06:55:12;;;;;;;9.80;1.80;;;;;;;12.23;75.93;101092.61;111884;1201;22461;-63
2021/09/05 06:57:40;;;;;;;8.90;1.40;;;;;;;12.31;76.01;101092.04;112041;1201;22557;-63
2021/09/05 07:00:11;;;;;;;8.90;1.40;;;;;;;12.37;75.66;101095.86;111961;1203;22453;-63
2021/09/05 07:02:40;;;;;;;8.00;1.40;;;;;;;12.45;75.52;101105.89;112057;1201;22434;-63
2021/09/05 07:05:11;;;;;;;8.30;1.50;;;;;;;12.51;75.29;101112.17;111895;1201;22479;-63
2021/09/05 07:07:39;;;;;;;8.20;1.50;;;;;;;12.57;75.52;101109.86;111971;1201;23235;-62
2021/09/05 07:10:09;;;;;;;8.40;1.50;;;;;;;12.65;75.36;101117.44;111939;1201;23035;-63
2021/09/05 07:12:45;;;;;;;7.20;1.40;;;;;;;12.73;75.14;101122.08;112022;1201;22454;-62
2021/09/05 07:15:14;;;;;;;7.30;1.50;;;;;;;12.82;75.14;101127.64;111924;1203;22451;-62
2021/09/05 07:17:46;;;;;;;7.50;1.30;;;;;;;12.91;74.89;101129.95;111880;1201;25109;-62
2021/09/05 07:20:14;;;;;;;9.40;1.50;;;;;;;12.99;74.55;101129.31;111873;1201;22439;-62
2021/09/05 07:22:43;;;;;;;13.60;1.70;;;;;;;13.07;74.37;101133.76;112017;1201;25246;-62
2021/09/05 07:25:12;;;;;;;6.90;1.50;;;;;;;13.14;74.17;101132.32;111860;1202;22452;-63
2021/09/05 07:27:40;;;;;;;8.00;1.30;;;;;;;13.20;73.82;101134.72;112142;1202;22620;-62
2021/09/05 07:30:10;;;;;;;10.20;1.40;;;;;;;13.27;73.41;101137.80;111768;1201;25358;-62
2021/09/05 07:32:38;;;;;;;6.60;1.40;;;;;;;13.35;73.52;101134.95;112053;1202;22523;-62
2021/09/05 07:35:11;;;;;;;7.70;1.30;;;;;;;13.42;73.05;101133.83;111783;1201;22451;-62
2021/09/05 07:37:44;;;;;;;6.00;1.10;;;;;;;13.51;72.85;101134.84;111975;1202;22451;-61
2021/09/05 07:40:15;;;;;;;8.10;1.40;;;;;;;13.61;72.92;101133.27;111830;1203;22419;-62
2021/09/05 07:42:44;;;;;;;6.90;1.40;;;;;;;13.70;72.49;101137.88;111820;1203;27448;-61
2021/09/05 07:45:17;;;;;;;7.80;1.50;;;;;;;13.77;72.37;101138.80;111879;1202;22450;-62
2021/09/05 07:47:45;;;;;;;7.60;1.40;;;;;;;13.86;72.45;101142.20;111977;1201;25108;-62
2021/09/05 07:50:13;;;;;;;8.60;1.30;;;;;;;13.95;72.24;101146.13;111892;1202;22986;-62
2021/09/05 07:52:41;;;;;;;6.30;1.40;;;;;;;14.04;72.10;101144.59;111851;1202;25174;-61
2021/09/05 07:55:11;;;;;;;6.70;1.40;;;;;;;14.16;72.19;101145.86;111903;1201;22431;-62
2021/09/05 07:57:39;;;;;;;8.50;1.30;;;;;;;14.27;71.70;101149.31;112167;1201;22447;-63
2021/09/05 08:00:10;;;;;;;7.00;1.40;;;;;;;14.35;71.42;101153.44;111860;1201;24122;-62
2021/09/05 08:02:40;;;;;;;6.90;1.50;;;;;;;14.42;71.00;101157.44;111829;1202;23598;-62
2021/09/05 08:05:12;;;;;;;7.00;1.30;;;;;;;14.50;71.18;101158.66;112123;1202;22448;-62
2021/09/05 08:07:40;;;;;;;7.20;1.20;;;;;;;14.61;70.97;101164.30;112238;1201;25140;-62
2021/09/05 08:10:11;;;;;;;9.50;1.40;;;;;;;14.72;70.74;101165.92;111863;1202;24046;-62
2021/09/05 08:12:39;;;;;;;5.90;1.10;;;;;;;14.82;70.03;101170.73;112092;1201;22438;-62
2021/09/05 08:15:10;;;;;;;5.40;1.20;;;;;;;14.90;69.48;101172.41;112002;1202;22506;-62
2021/09/05 08:17:38;;;;;;;4.90;0.90;;;;;;;15.01;69.10;101172.90;112189;1202;22451;-62
2021/09/05 08:20:10;;;;;;;3.70;0.90;;;;;;;15.12;68.91;101171.59;111946;1201;25140;-62
2021/09/05 08:22:39;;;;;;;5.80;0.80;;;;;;;15.21;68.50;101171.48;111824;1203;22545;-62
2021/09/05 08:25:10;;;;;;;4.60;0.90;;;;;;;15.30;68.49;101175.50;112486;1201;24096;-62
2021/09/05 08:27:39;;;;;;;3.70;0.90;;;;;;;15.41;68.38;101176.58;112238;1202;22552;-62
2021/09/05 08:30:10;;;;;;;3.80;0.90;;;;;;;15.50;68.28;101171.71;112043;1201;22467;-63
2021/09/05 08:32:38;;;;;;;4.60;1.10;;;;;;;15.61;67.95;101175.19;111883;1201;22632;-61
2021/09/05 08:35:10;;;;;;;5.00;0.90;;;;;;;15.66;67.14;101176.53;112090;1201;24070;-62
2021/09/05 08:37:38;;;;;;;;;;;;;;;15.69;66.79;101176.72;112141;1201;24312;-62
2021/09/05 08:40:09;;;;;;;5.30;0.80;;;;;;;15.74;66.58;101175.09;112042;1202;23460;-62
2021/09/05 08:42:37;;;;;;;9.90;0.90;;;;;;;15.84;66.52;101174.71;111945;1201;24924;-61
2021/09/05 08:45:08;;;;;;;5.10;1.00;;;;;;;15.98;66.13;101175.39;111846;1202;22563;-62
2021/09/05 08:47:36;;;;;;;2.90;0.70;;;;;;;16.06;65.69;101176.22;111935;1201;23102;-62
2021/09/05 08:50:07;;;;;;;4.90;0.90;;;;;;;16.11;64.91;101174.48;111743;1201;24106;-62
2021/09/05 08:52:34;;;;;;;;;;;;;;;16.14;64.81;101173.73;112094;1202;22741;-62
2021/09/05 08:55:04;;;;;;;5.20;0.80;;;;;;;16.17;64.54;101171.52;111897;1201;22448;-61
2021/09/05 08:57:37;;;;;;;3.00;0.70;;;;;;;16.22;64.11;101176.40;112093;1201;22450;-62
2021/09/05 09:00:08;;;;;;;5.10;0.80;;;;;;;16.28;63.77;101179.33;111800;1201;22464;-61
2021/09/05 09:02:48;;;;;;;5.70;1.00;;;;;;;16.34;63.49;101181.54;112044;1201;22481;-62
2021/09/05 09:05:29;;;;;;;5.00;0.80;;;;;;;16.45;63.39;101182.42;112196;1201;24013;-61
2021/09/05 09:08:01;;;;;;;4.90;0.80;;;;;;;16.53;63.27;101179.30;112174;1201;25107;-62
2021/09/05 09:10:29;;;;;;;2.80;0.70;;;;;;;16.61;63.18;101180.77;112073;1201;22565;-62
2021/09/05 09:12:59;;;;;;;3.60;0.70;;;;;;;16.68;62.84;101182.71;111901;1201;26387;-62
2021/09/05 09:15:29;;;;;;;4.30;0.70;;;;;;;16.75;62.52;101178.64;111830;1201;22460;-62
2021/09/05 09:18:00;;;;;;;4.60;0.70;;;;;;;16.81;61.89;101179.41;112095;1201;24389;-62
2021/09/05 09:20:45;;;;;;;3.00;0.70;;;;;;;16.83;61.04;101179.98;112059;1202;22448;-62
2021/09/05 09:23:18;;;;;;;6.70;1.00;;;;;;;16.89;61.29;101181.73;111862;1201;22451;-62
2021/09/05 09:25:56;;;;;;;4.10;0.80;;;;;;;16.97;61.08;101181.43;111861;1201;22443;-62
2021/09/05 09:28:30;;;;;;;3.00;0.60;;;;;;;17.08;60.50;101183.52;112111;1201;22520;-63
2021/09/05 09:31:04;;;;;;;4.30;0.90;;;;;;;17.12;60.00;101182.06;111865;1203;25220;-61
2021/09/05 09:33:37;;;;;;;5.20;1.00;;;;;;;17.16;59.62;101179.89;112013;1201;22443;-62
2021/09/05 09:36:07;;;;;;;5.10;0.80;;;;;;;17.20;59.66;101180.98;112082;1202;26307;-62
2021/09/05 09:38:35;;;;;;;;;;;;;;;17.26;59.67;101180.62;112069;1201;22440;-61
2021/09/05 09:41:12;;;;;;;2.40;0.60;;;;;;;17.32;58.93;101186.06;112129;1201;22500;-62
2021/09/05 09:43:52;;;;;;;4.10;0.60;;;;;;;17.40;58.72;101183.74;112179;1201;22455;-62
2021/09/05 09:46:25;;;;;;;4.90;0.70;;;;;;;17.48;58.59;101179.23;112312;1204;22441;-62
2021/09/05 09:48:58;;;;;;;4.60;0.70;;;;;;;17.54;58.11;101179.70;112360;1203;22992;-62
2021/09/05 09:51:29;;;;;;;5.10;0.80;;;;;;;17.62;58.02;101180.35;112311;1201;22475;-61
2021/09/05 09:53:58;;;;;;;3.10;0.60;;;;;;;17.69;57.85;101175.52;112274;1202;22549;-62
2021/09/05 09:56:29;;;;;;;3.10;0.70;;;;;;;17.77;57.90;101175.96;112307;1202;25180;-63
2021/09/05 09:59:00;;;;;;;2.70;0.60;;;;;;;17.84;57.30;101181.44;112422;1202;22447;-62
2021/09/05 10:01:37;;;;;;;4.70;0.80;;;;;;;17.86;56.52;101175.64;112341;1201;24294;-61
2021/09/05 10:04:09;;;;;;;3.70;0.80;;;;;;;17.87;56.62;101179.19;112194;1203;22543;-62
2021/09/05 10:06:38;;;;;;;5.60;0.60;;;;;;;17.90;56.50;101182.34;112072;1202;22488;-63
2021/09/05 10:09:09;;;;;;;5.50;0.90;;;;;;;17.93;56.29;101179.52;112201;1204;22685;-63
2021/09/05 10:11:43;;;;;;;4.20;0.70;;;;;;;17.96;56.31;101180.97;112441;1196;24200;-62
2021/09/05 10:14:14;;;;;;;3.10;0.70;;;;;;;18.03;56.07;101175.86;112209;1203;22442;-62
2021/09/05 10:16:45;;;;;;;3.90;0.90;;;;;;;18.09;55.83;101175.17;112108;1201;22465;-63
2021/09/05 10:19:15;;;;;;;3.40;0.70;;;;;;;18.13;55.51;101176.15;112102;1201;22443;-63
2021/09/05 10:21:44;;;;;;;3.60;0.60;;;;;;;18.14;54.94;101173.13;112024;1197;22471;-63
2021/09/05 10:24:15;;;;;;;4.30;0.70;;;;;;;18.15;54.97;101169.21;112181;1201;22432;-63
2021/09/05 10:27:02;;;;;;;4.70;0.80;;;;;;;18.16;54.71;101170.15;112126;1201;25266;-63
2021/09/05 10:29:31;;;;;;;3.40;0.60;;;;;;;18.17;54.48;101168.40;112090;1202;22458;-63
2021/09/05 10:32:00;;;;;;;3.10;0.80;;;;;;;18.18;54.57;101166.92;111856;1202;22623;-63
2021/09/05 10:34:37;;;;;;;3.40;0.50;;;;;;;18.24;54.81;101167.55;112098;1201;25416;-62
2021/09/05 10:37:08;;;;;;;3.00;0.60;;;;;;;18.30;54.50;101159.80;111793;1194;22445;-62
2021/09/05 10:40:09;;;;;;;3.90;0.80;;;;;;;18.31;53.72;101165.25;112146;1202;25022;-62
2021/09/05 10:42:53;;;;;;;3.90;0.80;;;;;;;18.34;53.78;101159.81;112264;1202;23737;-62
2021/09/05 10:45:26;;;;;;;2.80;0.60;;;;;;;18.36;53.40;101161.67;112282;1193;24148;-62
2021/09/05 10:47:56;;;;;;;3.50;0.80;;;;;;;18.38;53.41;101157.51;112295;1201;24166;-62
2021/09/05 10:50:38;;;;;;;3.40;0.60;;;;;;;18.43;53.22;101159.48;112258;1202;22957;-62
2021/09/05 10:53:21;;;;;;;3.60;0.50;;;;;;;18.47;52.73;101162.45;112426;1201;22444;-62
2021/09/05 10:56:24;;;;;;;3.00;0.60;;;;;;;18.49;52.77;101157.66;112256;1201;22462;-61
2021/09/05 10:58:59;;;;;;;5.20;0.70;;;;;;;18.52;52.59;101156.23;112346;1202;22721;-61
2021/09/05 11:01:35;;;;;;;4.90;0.70;;;;;;;18.59;52.58;101158.76;112399;1196;25698;-61
2021/09/05 11:04:44;;;;;;;4.10;0.70;;;;;;;18.62;52.22;101160.45;112270;1201;23754;-61
2021/09/05 11:07:30;;;;;;;3.90;0.60;;;;;;;18.66;52.28;101155.61;112017;1201;25176;-61
2021/09/05 11:10:01;;;;;;;4.30;0.60;;;;;;;18.72;52.21;101152.27;112239;1201;25150;-61
2021/09/05 11:12:41;;;;;;;4.00;0.70;;;;;;;18.76;52.01;101153.05;112308;1201;25920;-62
2021/09/05 11:15:15;;;;;;;3.80;0.60;;;;;;;18.79;51.66;101152.69;112321;1201;25511;-61
2021/09/05 11:17:55;;;;;;;3.10;0.60;;;;;;;18.81;51.41;101150.94;112188;1203;22708;-61
2021/09/05 11:20:24;;;;;;;;;;;;;;;18.83;51.28;101149.20;112144;1203;25306;-62
2021/09/05 11:22:55;;;;;;;4.50;0.80;;;;;;;18.84;51.45;101154.14;112306;1201;22453;-61
2021/09/05 11:25:27;;;;;;;5.50;0.80;;;;;;;18.89;51.42;101159.73;112075;1202;24719;-62
2021/09/05 11:28:00;;;;;;;3.50;0.60;;;;;;;18.94;51.06;101155.66;112221;1201;26304;-61
2021/09/05 11:30:38;;;;;;;3.50;0.70;;;;;;;18.98;50.94;101163.39;112182;1201;22600;-61
2021/09/05 11:33:11;;;;;;;4.00;0.70;;;;;;;18.99;50.53;101158.77;112149;1201;25007;-62